sensor_id;sensor_type;location;lat;lon;timestamp;P1;durP1;ratioP1;P2;durP2;ratioP2
27113;SDS011;14648;49.730;8.614;2024-03-06T00:00:00;11.43;;;2.10;;
27113;SDS011;14648;49.730;8.614;2024-03-06T00:02:28;4.53;;;1.43;;
27113;SDS011;14648;49.730;8.614;2024-03-06T00:04:53;7.10;;;1.83;;
27113;SDS011;14648;49.730;8.614;2024-03-06T00:07:19;1.97;;;1.87;;
27113;SDS011;14648;49.730;8.614;2024-03-06T00:09:45;3.67;;;1.93;;
27113;SDS011;14648;49.730;8.614;2024-03-06T00:12:11;4.80;;;3.10;;
27113;SDS011;14648;49.730;8.614;2024-03-06T00:14:36;1.60;;;1.50;;
27113;SDS011;14648;49.730;8.614;2024-03-06T00:17:03;5.23;;;1.87;;
27113;SDS011;14648;49.730;8.614;2024-03-06T00:19:32;3.33;;;2.30;;
27113;SDS011;14648;49.730;8.614;2024-03-06T00:21:59;2.23;;;1.90;;
27113;SDS011;14648;49.730;8.614;2024-03-06T00:24:28;8.20;;;2.40;;
27113;SDS011;14648;49.730;8.614;2024-03-06T00:26:54;8.73;;;1.93;;
27113;SDS011;14648;49.730;8.614;2024-03-06T00:29:20;3.37;;;2.40;;
27113;SDS011;14648;49.730;8.614;2024-03-06T00:31:46;1.97;;;1.87;;
27113;SDS011;14648;49.730;8.614;2024-03-06T00:34:12;2.67;;;2.50;;
27113;SDS011;14648;49.730;8.614;2024-03-06T00:36:41;2.43;;;1.47;;
27113;SDS011;14648;49.730;8.614;2024-03-06T00:39:10;8.87;;;1.40;;
27113;SDS011;14648;49.730;8.614;2024-03-06T00:41:39;4.53;;;2.57;;
27113;SDS011;14648;49.730;8.614;2024-03-06T00:44:05;3.33;;;2.20;;
27113;SDS011;14648;49.730;8.614;2024-03-06T00:46:31;3.40;;;2.70;;
27113;SDS011;14648;49.730;8.614;2024-03-06T00:48:56;2.57;;;2.00;;
27113;SDS011;14648;49.730;8.614;2024-03-06T00:51:22;6.13;;;2.80;;
27113;SDS011;14648;49.730;8.614;2024-03-06T00:53:48;2.10;;;1.90;;
27113;SDS011;14648;49.730;8.614;2024-03-06T00:56:14;1.67;;;1.57;;
27113;SDS011;14648;49.730;8.614;2024-03-06T00:58:39;1.37;;;1.27;;
27113;SDS011;14648;49.730;8.614;2024-03-06T01:01:05;3.27;;;1.63;;
27113;SDS011;14648;49.730;8.614;2024-03-06T01:03:31;4.63;;;2.30;;
27113;SDS011;14648;49.730;8.614;2024-03-06T01:05:56;2.17;;;1.97;;
27113;SDS011;14648;49.730;8.614;2024-03-06T01:08:22;4.93;;;2.00;;
27113;SDS011;14648;49.730;8.614;2024-03-06T01:10:50;1.97;;;1.70;;
27113;SDS011;14648;49.730;8.614;2024-03-06T01:13:17;3.27;;;1.70;;
27113;SDS011;14648;49.730;8.614;2024-03-06T01:15:46;5.33;;;1.90;;
27113;SDS011;14648;49.730;8.614;2024-03-06T01:18:11;3.93;;;1.90;;
27113;SDS011;14648;49.730;8.614;2024-03-06T01:20:37;2.97;;;1.57;;
27113;SDS011;14648;49.730;8.614;2024-03-06T01:23:03;2.83;;;2.20;;
27113;SDS011;14648;49.730;8.614;2024-03-06T01:25:30;4.40;;;2.93;;
27113;SDS011;14648;49.730;8.614;2024-03-06T01:27:55;8.00;;;2.90;;
27113;SDS011;14648;49.730;8.614;2024-03-06T01:30:21;2.60;;;1.87;;
27113;SDS011;14648;49.730;8.614;2024-03-06T01:32:47;2.37;;;1.60;;
27113;SDS011;14648;49.730;8.614;2024-03-06T01:35:12;4.70;;;2.60;;
27113;SDS011;14648;49.730;8.614;2024-03-06T01:37:39;2.80;;;2.20;;
27113;SDS011;14648;49.730;8.614;2024-03-06T01:40:05;8.30;;;2.73;;
27113;SDS011;14648;49.730;8.614;2024-03-06T01:42:34;3.10;;;2.27;;
27113;SDS011;14648;49.730;8.614;2024-03-06T01:44:59;3.73;;;2.30;;
27113;SDS011;14648;49.730;8.614;2024-03-06T01:47:27;3.63;;;2.00;;
27113;SDS011;14648;49.730;8.614;2024-03-06T01:49:52;1.97;;;1.73;;
27113;SDS011;14648;49.730;8.614;2024-03-06T01:52:18;5.30;;;1.83;;
27113;SDS011;14648;49.730;8.614;2024-03-06T01:54:46;11.23;;;3.00;;
27113;SDS011;14648;49.730;8.614;2024-03-06T01:57:15;1.67;;;1.57;;
27113;SDS011;14648;49.730;8.614;2024-03-06T01:59:42;6.00;;;3.73;;
27113;SDS011;14648;49.730;8.614;2024-03-06T02:02:08;3.07;;;2.30;;
27113;SDS011;14648;49.730;8.614;2024-03-06T02:04:36;2.50;;;2.30;;
27113;SDS011;14648;49.730;8.614;2024-03-06T02:07:03;1.83;;;1.73;;
27113;SDS011;14648;49.730;8.614;2024-03-06T02:09:33;3.40;;;2.10;;
27113;SDS011;14648;49.730;8.614;2024-03-06T02:11:59;2.70;;;1.60;;
27113;SDS011;14648;49.730;8.614;2024-03-06T02:14:25;1.60;;;1.50;;
27113;SDS011;14648;49.730;8.614;2024-03-06T02:16:52;2.10;;;1.97;;
27113;SDS011;14648;49.730;8.614;2024-03-06T02:19:18;1.73;;;1.63;;
27113;SDS011;14648;49.730;8.614;2024-03-06T02:21:43;1.77;;;1.67;;
27113;SDS011;14648;49.730;8.614;2024-03-06T02:24:09;5.17;;;2.10;;
27113;SDS011;14648;49.730;8.614;2024-03-06T02:26:36;2.03;;;1.93;;
27113;SDS011;14648;49.730;8.614;2024-03-06T02:29:03;3.87;;;2.53;;
27113;SDS011;14648;49.730;8.614;2024-03-06T02:31:31;3.00;;;1.80;;
27113;SDS011;14648;49.730;8.614;2024-03-06T02:33:58;2.70;;;1.37;;
27113;SDS011;14648;49.730;8.614;2024-03-06T02:36:24;3.23;;;2.37;;
27113;SDS011;14648;49.730;8.614;2024-03-06T02:38:49;2.83;;;1.37;;
27113;SDS011;14648;49.730;8.614;2024-03-06T02:41:18;1.87;;;1.50;;
27113;SDS011;14648;49.730;8.614;2024-03-06T02:43:43;2.30;;;1.43;;
27113;SDS011;14648;49.730;8.614;2024-03-06T02:46:09;2.70;;;2.47;;
27113;SDS011;14648;49.730;8.614;2024-03-06T02:48:35;2.47;;;2.20;;
27113;SDS011;14648;49.730;8.614;2024-03-06T02:51:01;2.40;;;1.60;;
27113;SDS011;14648;49.730;8.614;2024-03-06T02:53:27;1.77;;;1.43;;
27113;SDS011;14648;49.730;8.614;2024-03-06T02:55:53;5.43;;;1.97;;
27113;SDS011;14648;49.730;8.614;2024-03-06T02:58:18;5.00;;;2.87;;
27113;SDS011;14648;49.730;8.614;2024-03-06T03:00:44;3.03;;;2.83;;
27113;SDS011;14648;49.730;8.614;2024-03-06T03:03:10;2.47;;;2.27;;
27113;SDS011;14648;49.730;8.614;2024-03-06T03:05:37;2.00;;;1.53;;
27113;SDS011;14648;49.730;8.614;2024-03-06T03:08:04;2.93;;;1.80;;
27113;SDS011;14648;49.730;8.614;2024-03-06T03:10:30;6.93;;;2.07;;
27113;SDS011;14648;49.730;8.614;2024-03-06T03:12:56;1.90;;;1.43;;
27113;SDS011;14648;49.730;8.614;2024-03-06T03:15:22;1.80;;;1.70;;
27113;SDS011;14648;49.730;8.614;2024-03-06T03:17:48;1.73;;;1.60;;
27113;SDS011;14648;49.730;8.614;2024-03-06T03:20:13;1.27;;;1.17;;
27113;SDS011;14648;49.730;8.614;2024-03-06T03:22:42;4.30;;;1.80;;
27113;SDS011;14648;49.730;8.614;2024-03-06T03:25:11;3.60;;;3.07;;
27113;SDS011;14648;49.730;8.614;2024-03-06T03:27:38;2.10;;;1.90;;
27113;SDS011;14648;49.730;8.614;2024-03-06T03:30:08;2.53;;;1.80;;
27113;SDS011;14648;49.730;8.614;2024-03-06T03:32:35;2.40;;;1.97;;
27113;SDS011;14648;49.730;8.614;2024-03-06T03:35:02;1.60;;;1.50;;
27113;SDS011;14648;49.730;8.614;2024-03-06T03:37:33;1.50;;;1.30;;
27113;SDS011;14648;49.730;8.614;2024-03-06T03:39:59;2.47;;;1.83;;
27113;SDS011;14648;49.730;8.614;2024-03-06T03:42:25;1.33;;;1.13;;
27113;SDS011;14648;49.730;8.614;2024-03-06T03:44:51;1.30;;;1.20;;
27113;SDS011;14648;49.730;8.614;2024-03-06T03:47:17;1.67;;;1.43;;
27113;SDS011;14648;49.730;8.614;2024-03-06T03:49:43;8.00;;;1.37;;
27113;SDS011;14648;49.730;8.614;2024-03-06T03:52:09;2.13;;;1.70;;
27113;SDS011;14648;49.730;8.614;2024-03-06T03:54:35;1.70;;;1.60;;
27113;SDS011;14648;49.730;8.614;2024-03-06T03:57:01;2.20;;;1.17;;
27113;SDS011;14648;49.730;8.614;2024-03-06T03:59:26;1.83;;;1.40;;
27113;SDS011;14648;49.730;8.614;2024-03-06T04:01:52;1.33;;;1.20;;
27113;SDS011;14648;49.730;8.614;2024-03-06T04:04:18;3.90;;;1.10;;
27113;SDS011;14648;49.730;8.614;2024-03-06T04:06:44;1.47;;;1.37;;
27113;SDS011;14648;49.730;8.614;2024-03-06T04:09:10;1.50;;;1.40;;
27113;SDS011;14648;49.730;8.614;2024-03-06T04:11:37;1.33;;;1.23;;
27113;SDS011;14648;49.730;8.614;2024-03-06T04:14:03;8.10;;;1.77;;
27113;SDS011;14648;49.730;8.614;2024-03-06T04:16:31;2.50;;;1.30;;
27113;SDS011;14648;49.730;8.614;2024-03-06T04:18:58;1.93;;;1.00;;
27113;SDS011;14648;49.730;8.614;2024-03-06T04:21:23;1.00;;;0.97;;
27113;SDS011;14648;49.730;8.614;2024-03-06T04:23:49;1.40;;;1.30;;
27113;SDS011;14648;49.730;8.614;2024-03-06T04:26:15;3.73;;;1.73;;
27113;SDS011;14648;49.730;8.614;2024-03-06T04:28:42;1.73;;;0.90;;
27113;SDS011;14648;49.730;8.614;2024-03-06T04:31:08;0.93;;;0.93;;
27113;SDS011;14648;49.730;8.614;2024-03-06T04:33:35;2.10;;;1.47;;
27113;SDS011;14648;49.730;8.614;2024-03-06T04:36:02;2.63;;;1.43;;
27113;SDS011;14648;49.730;8.614;2024-03-06T04:38:32;1.10;;;1.00;;
27113;SDS011;14648;49.730;8.614;2024-03-06T04:40:58;1.03;;;0.90;;
27113;SDS011;14648;49.730;8.614;2024-03-06T04:43:23;1.83;;;1.73;;
27113;SDS011;14648;49.730;8.614;2024-03-06T04:45:49;2.50;;;1.70;;
27113;SDS011;14648;49.730;8.614;2024-03-06T04:48:15;1.30;;;1.20;;
27113;SDS011;14648;49.730;8.614;2024-03-06T04:50:41;1.90;;;1.50;;
27113;SDS011;14648;49.730;8.614;2024-03-06T04:53:06;1.50;;;1.30;;
27113;SDS011;14648;49.730;8.614;2024-03-06T04:55:32;1.23;;;0.90;;
27113;SDS011;14648;49.730;8.614;2024-03-06T04:57:58;3.50;;;2.10;;
27113;SDS011;14648;49.730;8.614;2024-03-06T05:00:24;2.00;;;1.43;;
27113;SDS011;14648;49.730;8.614;2024-03-06T05:02:50;1.70;;;1.10;;
27113;SDS011;14648;49.730;8.614;2024-03-06T05:05:16;2.80;;;1.23;;
27113;SDS011;14648;49.730;8.614;2024-03-06T05:07:41;1.60;;;1.50;;
27113;SDS011;14648;49.730;8.614;2024-03-06T05:10:07;2.03;;;1.67;;
27113;SDS011;14648;49.730;8.614;2024-03-06T05:12:34;1.53;;;1.43;;
27113;SDS011;14648;49.730;8.614;2024-03-06T05:14:59;2.03;;;1.80;;
27113;SDS011;14648;49.730;8.614;2024-03-06T05:17:26;2.00;;;1.00;;
27113;SDS011;14648;49.730;8.614;2024-03-06T05:19:51;4.40;;;2.23;;
27113;SDS011;14648;49.730;8.614;2024-03-06T05:22:17;2.47;;;2.23;;
27113;SDS011;14648;49.730;8.614;2024-03-06T05:24:43;4.57;;;2.30;;
27113;SDS011;14648;49.730;8.614;2024-03-06T05:27:09;3.07;;;1.50;;
27113;SDS011;14648;49.730;8.614;2024-03-06T05:29:38;2.13;;;1.80;;
27113;SDS011;14648;49.730;8.614;2024-03-06T05:32:04;1.93;;;1.70;;
27113;SDS011;14648;49.730;8.614;2024-03-06T05:34:32;5.93;;;2.73;;
27113;SDS011;14648;49.730;8.614;2024-03-06T05:36:59;2.87;;;2.20;;
27113;SDS011;14648;49.730;8.614;2024-03-06T05:39:26;3.77;;;2.00;;
27113;SDS011;14648;49.730;8.614;2024-03-06T05:41:53;4.20;;;2.60;;
27113;SDS011;14648;49.730;8.614;2024-03-06T05:44:20;1.83;;;1.73;;
27113;SDS011;14648;49.730;8.614;2024-03-06T05:46:46;6.33;;;2.37;;
27113;SDS011;14648;49.730;8.614;2024-03-06T05:49:15;4.00;;;3.13;;
27113;SDS011;14648;49.730;8.614;2024-03-06T05:51:41;5.97;;;2.57;;
27113;SDS011;14648;49.730;8.614;2024-03-06T05:54:07;5.93;;;2.50;;
27113;SDS011;14648;49.730;8.614;2024-03-06T05:56:34;5.33;;;3.30;;
27113;SDS011;14648;49.730;8.614;2024-03-06T05:59:00;7.13;;;2.70;;
27113;SDS011;14648;49.730;8.614;2024-03-06T06:01:32;2.70;;;2.50;;
27113;SDS011;14648;49.730;8.614;2024-03-06T06:04:01;4.63;;;1.70;;
27113;SDS011;14648;49.730;8.614;2024-03-06T06:06:27;2.03;;;1.93;;
27113;SDS011;14648;49.730;8.614;2024-03-06T06:08:53;2.57;;;1.73;;
27113;SDS011;14648;49.730;8.614;2024-03-06T06:11:19;3.37;;;1.70;;
27113;SDS011;14648;49.730;8.614;2024-03-06T06:13:45;2.30;;;1.53;;
27113;SDS011;14648;49.730;8.614;2024-03-06T06:16:10;3.80;;;3.00;;
27113;SDS011;14648;49.730;8.614;2024-03-06T06:18:37;4.70;;;2.00;;
27113;SDS011;14648;49.730;8.614;2024-03-06T06:21:04;1.47;;;1.30;;
27113;SDS011;14648;49.730;8.614;2024-03-06T06:23:32;5.10;;;2.03;;
27113;SDS011;14648;49.730;8.614;2024-03-06T06:25:58;1.67;;;1.50;;
27113;SDS011;14648;49.730;8.614;2024-03-06T06:28:24;2.93;;;2.23;;
27113;SDS011;14648;49.730;8.614;2024-03-06T06:30:50;2.37;;;2.27;;
27113;SDS011;14648;49.730;8.614;2024-03-06T06:33:17;4.37;;;1.80;;
27113;SDS011;14648;49.730;8.614;2024-03-06T06:35:44;4.03;;;2.53;;
27113;SDS011;14648;49.730;8.614;2024-03-06T06:38:10;1.97;;;1.73;;
27113;SDS011;14648;49.730;8.614;2024-03-06T06:40:36;2.13;;;1.80;;
27113;SDS011;14648;49.730;8.614;2024-03-06T06:43:01;3.17;;;2.20;;
27113;SDS011;14648;49.730;8.614;2024-03-06T06:45:27;6.03;;;2.17;;
27113;SDS011;14648;49.730;8.614;2024-03-06T06:47:53;1.73;;;1.57;;
27113;SDS011;14648;49.730;8.614;2024-03-06T06:50:19;3.50;;;3.20;;
27113;SDS011;14648;49.730;8.614;2024-03-06T06:52:48;10.30;;;5.17;;
27113;SDS011;14648;49.730;8.614;2024-03-06T06:55:13;6.10;;;3.20;;
27113;SDS011;14648;49.730;8.614;2024-03-06T06:57:39;4.70;;;4.30;;
27113;SDS011;14648;49.730;8.614;2024-03-06T07:00:05;7.33;;;4.37;;
27113;SDS011;14648;49.730;8.614;2024-03-06T07:02:41;3.43;;;3.13;;
27113;SDS011;14648;49.730;8.614;2024-03-06T07:05:08;3.37;;;2.57;;
27113;SDS011;14648;49.730;8.614;2024-03-06T07:07:35;3.83;;;3.10;;
27113;SDS011;14648;49.730;8.614;2024-03-06T07:10:02;9.03;;;3.50;;
27113;SDS011;14648;49.730;8.614;2024-03-06T07:12:29;5.70;;;3.23;;
27113;SDS011;14648;49.730;8.614;2024-03-06T07:14:55;2.83;;;2.63;;
27113;SDS011;14648;49.730;8.614;2024-03-06T07:17:21;4.17;;;3.77;;
27113;SDS011;14648;49.730;8.614;2024-03-06T07:19:47;3.97;;;2.57;;
27113;SDS011;14648;49.730;8.614;2024-03-06T07:22:13;5.67;;;3.40;;
27113;SDS011;14648;49.730;8.614;2024-03-06T07:24:38;5.63;;;3.00;;
27113;SDS011;14648;49.730;8.614;2024-03-06T07:27:04;7.63;;;4.57;;
27113;SDS011;14648;49.730;8.614;2024-03-06T07:29:30;6.67;;;4.07;;
27113;SDS011;14648;49.730;8.614;2024-03-06T07:31:56;16.47;;;5.00;;
27113;SDS011;14648;49.730;8.614;2024-03-06T07:34:22;3.80;;;3.10;;
27113;SDS011;14648;49.730;8.614;2024-03-06T07:36:48;5.73;;;3.07;;
27113;SDS011;14648;49.730;8.614;2024-03-06T07:39:18;3.90;;;3.60;;
27113;SDS011;14648;49.730;8.614;2024-03-06T07:41:45;4.23;;;3.37;;
27113;SDS011;14648;49.730;8.614;2024-03-06T07:44:11;4.77;;;3.47;;
27113;SDS011;14648;49.730;8.614;2024-03-06T07:46:37;3.70;;;2.73;;
27113;SDS011;14648;49.730;8.614;2024-03-06T07:49:04;3.83;;;2.70;;
27113;SDS011;14648;49.730;8.614;2024-03-06T07:51:30;3.63;;;2.93;;
27113;SDS011;14648;49.730;8.614;2024-03-06T07:53:59;8.90;;;4.50;;
27113;SDS011;14648;49.730;8.614;2024-03-06T07:56:25;6.27;;;3.13;;
27113;SDS011;14648;49.730;8.614;2024-03-06T07:58:52;5.80;;;3.70;;
27113;SDS011;14648;49.730;8.614;2024-03-06T08:01:21;9.53;;;6.00;;
27113;SDS011;14648;49.730;8.614;2024-03-06T08:03:47;7.07;;;3.30;;
27113;SDS011;14648;49.730;8.614;2024-03-06T08:06:13;8.10;;;4.10;;
27113;SDS011;14648;49.730;8.614;2024-03-06T08:08:41;4.87;;;4.23;;
27113;SDS011;14648;49.730;8.614;2024-03-06T08:11:09;6.90;;;3.70;;
27113;SDS011;14648;49.730;8.614;2024-03-06T08:13:36;6.10;;;3.30;;
27113;SDS011;14648;49.730;8.614;2024-03-06T08:16:03;2.97;;;2.70;;
27113;SDS011;14648;49.730;8.614;2024-03-06T08:18:30;4.47;;;3.23;;
27113;SDS011;14648;49.730;8.614;2024-03-06T08:20:56;3.20;;;2.93;;
27113;SDS011;14648;49.730;8.614;2024-03-06T08:23:22;3.40;;;2.77;;
27113;SDS011;14648;49.730;8.614;2024-03-06T08:25:48;8.40;;;2.40;;
27113;SDS011;14648;49.730;8.614;2024-03-06T08:28:14;3.60;;;1.80;;
27113;SDS011;14648;49.730;8.614;2024-03-06T08:30:40;3.27;;;2.13;;
27113;SDS011;14648;49.730;8.614;2024-03-06T08:33:06;3.20;;;2.43;;
27113;SDS011;14648;49.730;8.614;2024-03-06T08:35:32;7.27;;;2.70;;
27113;SDS011;14648;49.730;8.614;2024-03-06T08:37:59;3.50;;;3.00;;
27113;SDS011;14648;49.730;8.614;2024-03-06T08:40:25;4.43;;;2.00;;
27113;SDS011;14648;49.730;8.614;2024-03-06T08:42:53;2.60;;;2.03;;
27113;SDS011;14648;49.730;8.614;2024-03-06T08:45:19;3.00;;;2.80;;
27113;SDS011;14648;49.730;8.614;2024-03-06T08:47:45;4.23;;;2.73;;
27113;SDS011;14648;49.730;8.614;2024-03-06T08:50:13;4.70;;;3.00;;
27113;SDS011;14648;49.730;8.614;2024-03-06T08:52:39;6.80;;;3.20;;
27113;SDS011;14648;49.730;8.614;2024-03-06T08:55:06;2.70;;;2.50;;
27113;SDS011;14648;49.730;8.614;2024-03-06T08:57:33;5.37;;;3.50;;
27113;SDS011;14648;49.730;8.614;2024-03-06T08:59:59;4.17;;;2.40;;
27113;SDS011;14648;49.730;8.614;2024-03-06T09:02:25;2.23;;;1.80;;
27113;SDS011;14648;49.730;8.614;2024-03-06T09:04:52;3.37;;;3.07;;
27113;SDS011;14648;49.730;8.614;2024-03-06T09:07:18;3.37;;;2.33;;
27113;SDS011;14648;49.730;8.614;2024-03-06T09:09:48;3.67;;;3.00;;
27113;SDS011;14648;49.730;8.614;2024-03-06T09:12:15;2.87;;;1.90;;
27113;SDS011;14648;49.730;8.614;2024-03-06T09:14:41;3.03;;;2.67;;
27113;SDS011;14648;49.730;8.614;2024-03-06T09:17:06;3.77;;;2.63;;
27113;SDS011;14648;49.730;8.614;2024-03-06T09:19:35;2.70;;;2.50;;
27113;SDS011;14648;49.730;8.614;2024-03-06T09:22:01;4.13;;;2.87;;
27113;SDS011;14648;49.730;8.614;2024-03-06T09:24:27;4.17;;;3.03;;
27113;SDS011;14648;49.730;8.614;2024-03-06T09:26:53;5.37;;;3.80;;
27113;SDS011;14648;49.730;8.614;2024-03-06T09:29:19;6.83;;;3.20;;
27113;SDS011;14648;49.730;8.614;2024-03-06T09:31:46;7.67;;;4.30;;
27113;SDS011;14648;49.730;8.614;2024-03-06T09:34:14;5.50;;;3.23;;
27113;SDS011;14648;49.730;8.614;2024-03-06T09:36:49;5.70;;;3.20;;
27113;SDS011;14648;49.730;8.614;2024-03-06T09:39:16;7.30;;;2.83;;
27113;SDS011;14648;49.730;8.614;2024-03-06T09:41:46;3.43;;;2.93;;
27113;SDS011;14648;49.730;8.614;2024-03-06T09:44:12;3.73;;;3.43;;
27113;SDS011;14648;49.730;8.614;2024-03-06T09:46:43;7.13;;;4.40;;
27113;SDS011;14648;49.730;8.614;2024-03-06T09:49:10;4.33;;;3.27;;
27113;SDS011;14648;49.730;8.614;2024-03-06T09:51:39;6.47;;;5.10;;
27113;SDS011;14648;49.730;8.614;2024-03-06T09:54:12;6.17;;;3.73;;
27113;SDS011;14648;49.730;8.614;2024-03-06T09:56:42;10.00;;;3.80;;
27113;SDS011;14648;49.730;8.614;2024-03-06T09:59:14;5.70;;;3.77;;
27113;SDS011;14648;49.730;8.614;2024-03-06T10:01:50;7.03;;;4.13;;
27113;SDS011;14648;49.730;8.614;2024-03-06T10:04:20;8.70;;;4.37;;
27113;SDS011;14648;49.730;8.614;2024-03-06T10:06:50;11.97;;;5.83;;
27113;SDS011;14648;49.730;8.614;2024-03-06T10:09:20;11.73;;;5.63;;
27113;SDS011;14648;49.730;8.614;2024-03-06T10:11:46;7.93;;;4.30;;
27113;SDS011;14648;49.730;8.614;2024-03-06T10:14:12;7.43;;;5.57;;
27113;SDS011;14648;49.730;8.614;2024-03-06T10:16:51;4.50;;;4.10;;
27113;SDS011;14648;49.730;8.614;2024-03-06T10:19:22;6.73;;;4.43;;
27113;SDS011;14648;49.730;8.614;2024-03-06T10:21:49;9.10;;;6.00;;
27113;SDS011;14648;49.730;8.614;2024-03-06T10:24:20;7.37;;;5.90;;
27113;SDS011;14648;49.730;8.614;2024-03-06T10:26:48;10.13;;;5.40;;
27113;SDS011;14648;49.730;8.614;2024-03-06T10:29:18;10.60;;;6.43;;
27113;SDS011;14648;49.730;8.614;2024-03-06T10:32:02;9.90;;;5.80;;
27113;SDS011;14648;49.730;8.614;2024-03-06T10:34:28;11.97;;;5.97;;
27113;SDS011;14648;49.730;8.614;2024-03-06T10:36:54;9.20;;;6.13;;
27113;SDS011;14648;49.730;8.614;2024-03-06T10:39:22;10.53;;;6.10;;
27113;SDS011;14648;49.730;8.614;2024-03-06T10:41:53;16.87;;;6.57;;
27113;SDS011;14648;49.730;8.614;2024-03-06T10:44:23;10.80;;;6.17;;
27113;SDS011;14648;49.730;8.614;2024-03-06T10:49:25;11.67;;;5.23;;
27113;SDS011;14648;49.730;8.614;2024-03-06T10:51:54;11.90;;;5.77;;
27113;SDS011;14648;49.730;8.614;2024-03-06T10:54:25;12.10;;;6.13;;
27113;SDS011;14648;49.730;8.614;2024-03-06T10:56:53;15.70;;;6.73;;
27113;SDS011;14648;49.730;8.614;2024-03-06T10:59:20;11.43;;;6.13;;
27113;SDS011;14648;49.730;8.614;2024-03-06T11:01:46;14.13;;;5.70;;
27113;SDS011;14648;49.730;8.614;2024-03-06T11:04:12;12.27;;;6.50;;
27113;SDS011;14648;49.730;8.614;2024-03-06T11:06:40;8.43;;;5.13;;
27113;SDS011;14648;49.730;8.614;2024-03-06T11:09:06;9.30;;;4.77;;
27113;SDS011;14648;49.730;8.614;2024-03-06T11:11:46;11.40;;;5.30;;
27113;SDS011;14648;49.730;8.614;2024-03-06T11:14:14;12.10;;;5.83;;
27113;SDS011;14648;49.730;8.614;2024-03-06T11:17:00;22.63;;;5.30;;
27113;SDS011;14648;49.730;8.614;2024-03-06T11:19:28;8.87;;;5.17;;
27113;SDS011;14648;49.730;8.614;2024-03-06T11:21:56;13.57;;;5.27;;
27113;SDS011;14648;49.730;8.614;2024-03-06T11:24:22;8.17;;;4.93;;
27113;SDS011;14648;49.730;8.614;2024-03-06T11:27:03;11.23;;;5.27;;
27113;SDS011;14648;49.730;8.614;2024-03-06T11:32:57;8.60;;;4.83;;
27113;SDS011;14648;49.730;8.614;2024-03-06T11:35:27;8.10;;;5.23;;
27113;SDS011;14648;49.730;8.614;2024-03-06T11:37:53;8.80;;;5.60;;
27113;SDS011;14648;49.730;8.614;2024-03-06T11:40:23;10.93;;;5.27;;
27113;SDS011;14648;49.730;8.614;2024-03-06T11:42:49;9.87;;;5.27;;
27113;SDS011;14648;49.730;8.614;2024-03-06T11:45:17;8.03;;;4.80;;
27113;SDS011;14648;49.730;8.614;2024-03-06T11:48:00;9.93;;;4.70;;
27113;SDS011;14648;49.730;8.614;2024-03-06T11:50:27;9.43;;;5.33;;
27113;SDS011;14648;49.730;8.614;2024-03-06T11:52:57;9.60;;;5.43;;
27113;SDS011;14648;49.730;8.614;2024-03-06T11:55:23;10.67;;;5.13;;
27113;SDS011;14648;49.730;8.614;2024-03-06T11:57:52;12.80;;;5.30;;
27113;SDS011;14648;49.730;8.614;2024-03-06T12:00:21;8.30;;;4.60;;
27113;SDS011;14648;49.730;8.614;2024-03-06T12:02:48;9.80;;;4.63;;
27113;SDS011;14648;49.730;8.614;2024-03-06T12:05:16;11.33;;;5.17;;
27113;SDS011;14648;49.730;8.614;2024-03-06T12:07:49;7.43;;;4.30;;
27113;SDS011;14648;49.730;8.614;2024-03-06T12:10:16;7.47;;;3.90;;
27113;SDS011;14648;49.730;8.614;2024-03-06T12:12:42;10.10;;;5.00;;
27113;SDS011;14648;49.730;8.614;2024-03-06T12:15:10;8.17;;;4.37;;
27113;SDS011;14648;49.730;8.614;2024-03-06T12:17:43;9.83;;;5.30;;
27113;SDS011;14648;49.730;8.614;2024-03-06T12:20:17;8.67;;;5.40;;
27113;SDS011;14648;49.730;8.614;2024-03-06T12:22:44;6.80;;;4.50;;
27113;SDS011;14648;49.730;8.614;2024-03-06T12:25:24;9.47;;;4.43;;
27113;SDS011;14648;49.730;8.614;2024-03-06T12:27:53;10.70;;;4.90;;
27113;SDS011;14648;49.730;8.614;2024-03-06T12:30:20;8.37;;;5.00;;
27113;SDS011;14648;49.730;8.614;2024-03-06T12:33:00;10.83;;;5.97;;
27113;SDS011;14648;49.730;8.614;2024-03-06T12:35:30;9.30;;;5.20;;
27113;SDS011;14648;49.730;8.614;2024-03-06T12:37:57;11.83;;;5.20;;
27113;SDS011;14648;49.730;8.614;2024-03-06T12:40:23;14.80;;;5.43;;
27113;SDS011;14648;49.730;8.614;2024-03-06T12:42:49;8.03;;;3.60;;
27113;SDS011;14648;49.730;8.614;2024-03-06T12:45:17;11.50;;;4.60;;
27113;SDS011;14648;49.730;8.614;2024-03-06T12:47:44;11.93;;;5.23;;
27113;SDS011;14648;49.730;8.614;2024-03-06T12:50:13;9.03;;;4.60;;
27113;SDS011;14648;49.730;8.614;2024-03-06T12:52:39;9.93;;;4.13;;
27113;SDS011;14648;49.730;8.614;2024-03-06T12:55:06;11.53;;;5.60;;
27113;SDS011;14648;49.730;8.614;2024-03-06T12:57:32;10.17;;;4.70;;
27113;SDS011;14648;49.730;8.614;2024-03-06T12:59:59;11.20;;;5.67;;
27113;SDS011;14648;49.730;8.614;2024-03-06T13:02:26;12.60;;;6.90;;
27113;SDS011;14648;49.730;8.614;2024-03-06T13:04:52;10.27;;;6.30;;
27113;SDS011;14648;49.730;8.614;2024-03-06T13:07:18;7.10;;;4.77;;
27113;SDS011;14648;49.730;8.614;2024-03-06T13:09:44;13.57;;;5.20;;
27113;SDS011;14648;49.730;8.614;2024-03-06T13:12:10;9.90;;;6.10;;
27113;SDS011;14648;49.730;8.614;2024-03-06T13:14:36;6.90;;;5.00;;
27113;SDS011;14648;49.730;8.614;2024-03-06T13:17:02;11.93;;;5.57;;
27113;SDS011;14648;49.730;8.614;2024-03-06T13:19:28;13.47;;;6.47;;
27113;SDS011;14648;49.730;8.614;2024-03-06T13:21:54;13.23;;;7.77;;
27113;SDS011;14648;49.730;8.614;2024-03-06T13:24:20;9.63;;;4.80;;
27113;SDS011;14648;49.730;8.614;2024-03-06T13:26:46;9.83;;;5.70;;
27113;SDS011;14648;49.730;8.614;2024-03-06T13:29:12;11.10;;;5.10;;
27113;SDS011;14648;49.730;8.614;2024-03-06T13:31:39;8.97;;;6.20;;
27113;SDS011;14648;49.730;8.614;2024-03-06T13:34:05;15.33;;;6.60;;
27113;SDS011;14648;49.730;8.614;2024-03-06T13:36:31;14.67;;;5.77;;
27113;SDS011;14648;49.730;8.614;2024-03-06T13:38:57;10.13;;;5.57;;
27113;SDS011;14648;49.730;8.614;2024-03-06T13:41:23;14.43;;;7.33;;
27113;SDS011;14648;49.730;8.614;2024-03-06T13:43:48;12.23;;;6.07;;
27113;SDS011;14648;49.730;8.614;2024-03-06T13:46:14;10.50;;;5.27;;
27113;SDS011;14648;49.730;8.614;2024-03-06T13:48:40;11.33;;;4.97;;
27113;SDS011;14648;49.730;8.614;2024-03-06T13:51:06;10.00;;;6.30;;
27113;SDS011;14648;49.730;8.614;2024-03-06T13:53:32;11.07;;;6.60;;
27113;SDS011;14648;49.730;8.614;2024-03-06T13:55:58;9.93;;;5.43;;
27113;SDS011;14648;49.730;8.614;2024-03-06T13:58:24;8.73;;;4.63;;
27113;SDS011;14648;49.730;8.614;2024-03-06T14:00:51;10.63;;;5.60;;
27113;SDS011;14648;49.730;8.614;2024-03-06T14:03:17;10.80;;;6.47;;
27113;SDS011;14648;49.730;8.614;2024-03-06T14:05:43;12.10;;;5.80;;
27113;SDS011;14648;49.730;8.614;2024-03-06T14:08:08;12.30;;;5.83;;
27113;SDS011;14648;49.730;8.614;2024-03-06T14:10:37;16.67;;;5.10;;
27113;SDS011;14648;49.730;8.614;2024-03-06T14:13:04;14.70;;;6.37;;
27113;SDS011;14648;49.730;8.614;2024-03-06T14:15:32;18.23;;;5.53;;
27113;SDS011;14648;49.730;8.614;2024-03-06T14:17:58;14.33;;;6.80;;
27113;SDS011;14648;49.730;8.614;2024-03-06T14:20:23;11.70;;;6.17;;
27113;SDS011;14648;49.730;8.614;2024-03-06T14:22:49;9.90;;;5.80;;
27113;SDS011;14648;49.730;8.614;2024-03-06T14:25:16;12.17;;;6.23;;
27113;SDS011;14648;49.730;8.614;2024-03-06T14:27:42;11.40;;;5.90;;
27113;SDS011;14648;49.730;8.614;2024-03-06T14:30:08;8.70;;;4.77;;
27113;SDS011;14648;49.730;8.614;2024-03-06T14:32:37;13.10;;;6.20;;
27113;SDS011;14648;49.730;8.614;2024-03-06T14:35:04;11.90;;;5.50;;
27113;SDS011;14648;49.730;8.614;2024-03-06T14:37:30;9.07;;;5.63;;
27113;SDS011;14648;49.730;8.614;2024-03-06T14:39:56;12.87;;;6.00;;
27113;SDS011;14648;49.730;8.614;2024-03-06T14:42:22;12.97;;;6.33;;
27113;SDS011;14648;49.730;8.614;2024-03-06T14:44:48;10.10;;;5.27;;
27113;SDS011;14648;49.730;8.614;2024-03-06T14:47:14;10.73;;;5.87;;
27113;SDS011;14648;49.730;8.614;2024-03-06T14:49:43;11.77;;;5.80;;